createdAt,value
2023-04-08T00:02:17.067Z,11.17
2023-04-08T00:04:45.082Z,11.47
2023-04-08T00:07:14.317Z,11.47
2023-04-08T00:09:42.335Z,9.27
2023-04-08T00:12:10.325Z,10.73
2023-04-08T00:14:41.376Z,9.27
2023-04-08T00:17:09.648Z,11.43
2023-04-08T00:19:37.521Z,10.13
2023-04-08T00:22:05.708Z,9.80
2023-04-08T00:24:35.060Z,10.37
2023-04-08T00:27:03.414Z,8.20
2023-04-08T00:29:31.364Z,10.90
2023-04-08T00:31:59.394Z,9.77
2023-04-08T00:34:27.956Z,10.87
2023-04-08T00:36:56.311Z,10.50
2023-04-08T00:39:24.120Z,10.83
2023-04-08T00:41:53.387Z,11.37
2023-04-08T00:44:21.309Z,11.87
2023-04-08T00:46:49.374Z,11.63
2023-04-08T00:49:17.504Z,10.93
2023-04-08T00:51:45.350Z,12.90
2023-04-08T00:54:15.432Z,12.33
2023-04-08T00:56:45.278Z,12.27
2023-04-08T00:59:14.769Z,13.37
2023-04-08T01:01:49.768Z,12.30
2023-04-08T01:04:27.723Z,12.53
2023-04-08T01:07:02.072Z,11.67
2023-04-08T01:09:33.869Z,11.07
2023-04-08T01:12:06.525Z,12.63
2023-04-08T01:14:40.049Z,13.40
2023-04-08T01:17:09.671Z,12.67
2023-04-08T01:19:41.532Z,10.60
2023-04-08T01:22:26.702Z,11.60
2023-04-08T01:25:02.256Z,9.90
2023-04-08T01:27:32.747Z,11.90
2023-04-08T01:30:04.343Z,11.20
2023-04-08T01:32:33.667Z,10.47
2023-04-08T01:35:03.308Z,11.07
2023-04-08T01:37:32.411Z,10.07
2023-04-08T01:40:02.522Z,10.30
2023-04-08T01:42:33.558Z,11.17
2023-04-08T01:45:02.613Z,8.63
2023-04-08T01:47:31.525Z,10.50
2023-04-08T01:50:00.844Z,11.53
2023-04-08T01:52:31.132Z,11.33
2023-04-08T01:54:59.107Z,10.57
2023-04-08T01:57:32.964Z,12.57
2023-04-08T02:00:03.903Z,11.40
2023-04-08T02:02:48.842Z,12.03
2023-04-08T02:05:17.648Z,12.57
2023-04-08T02:07:46.738Z,11.40
2023-04-08T02:10:14.816Z,7.23
2023-04-08T02:12:45.008Z,9.77
2023-04-08T02:15:13.882Z,12.60
2023-04-08T02:17:49.809Z,13.80
2023-04-08T02:20:25.362Z,12.93
2023-04-08T02:22:59.560Z,13.67
2023-04-08T02:25:30.580Z,13.30
2023-04-08T02:28:03.947Z,10.93
2023-04-08T02:30:33.612Z,13.43
2023-04-08T02:33:04.421Z,14.60
2023-04-08T02:35:33.434Z,14.00
2023-04-08T02:38:01.338Z,15.87
2023-04-08T02:40:31.673Z,11.07
2023-04-08T02:43:02.594Z,15.67
2023-04-08T02:45:33.596Z,16.60
2023-04-08T02:48:02.462Z,17.53
2023-04-08T02:50:30.693Z,15.97
2023-04-08T02:52:58.609Z,16.33
2023-04-08T02:55:26.580Z,15.00
2023-04-08T02:57:54.438Z,14.10
2023-04-08T03:00:23.682Z,14.93
2023-04-08T03:02:51.860Z,17.83
2023-04-08T03:05:19.949Z,17.47
2023-04-08T03:07:47.809Z,14.90
2023-04-08T03:10:15.608Z,14.93
2023-04-08T03:12:43.533Z,13.87
2023-04-08T03:15:11.598Z,16.37
2023-04-08T03:17:40.909Z,15.30
2023-04-08T03:20:09.734Z,14.60
2023-04-08T03:22:37.896Z,13.53
2023-04-08T03:25:06.523Z,13.90
2023-04-08T03:27:34.457Z,14.13
2023-04-08T03:30:02.254Z,13.23
2023-04-08T03:32:30.189Z,12.47
2023-04-08T03:34:59.339Z,15.77
2023-04-08T03:37:27.213Z,12.73
2023-04-08T03:39:56.089Z,15.13
2023-04-08T03:42:24.379Z,16.20
2023-04-08T03:44:52.209Z,15.17
2023-04-08T03:47:21.065Z,14.03
2023-04-08T03:49:49.091Z,16.60
2023-04-08T03:52:19.042Z,16.97
2023-04-08T03:54:46.864Z,15.80
2023-04-08T03:57:14.727Z,13.20
2023-04-08T03:59:42.543Z,13.50
2023-04-08T04:02:10.466Z,15.17
2023-04-08T04:04:38.611Z,12.97
2023-04-08T04:07:06.574Z,14.60
2023-04-08T04:09:35.794Z,15.87
2023-04-08T04:12:03.766Z,14.93
2023-04-08T04:14:31.585Z,14.77
2023-04-08T04:16:59.502Z,14.00
2023-04-08T04:19:31.162Z,13.57
2023-04-08T04:21:59.026Z,14.53
2023-04-08T04:24:26.874Z,13.13
2023-04-08T04:26:56.468Z,10.63
2023-04-08T04:29:25.324Z,11.73
2023-04-08T04:31:53.115Z,13.97
2023-04-08T04:34:20.980Z,8.27
2023-04-08T04:36:48.802Z,14.17
2023-04-08T04:39:16.687Z,13.00
2023-04-08T04:41:44.662Z,14.93
2023-04-08T04:44:13.862Z,10.53
2023-04-08T04:46:41.650Z,11.80
2023-04-08T04:49:09.535Z,12.97
2023-04-08T04:51:37.441Z,14.37
2023-04-08T04:54:05.360Z,12.63
2023-04-08T04:56:33.328Z,14.30
2023-04-08T04:59:01.427Z,10.73
2023-04-08T05:01:30.612Z,14.87
2023-04-08T05:03:59.272Z,14.97
2023-04-08T05:06:27.550Z,10.20
2023-04-08T05:08:55.578Z,15.17
2023-04-08T05:11:23.440Z,15.87
2023-04-08T05:13:51.400Z,16.13
2023-04-08T05:16:19.306Z,14.97
2023-04-08T05:18:48.703Z,11.67
2023-04-08T05:21:18.266Z,14.70
2023-04-08T05:23:46.179Z,14.77
2023-04-08T05:26:15.903Z,16.27
2023-04-08T05:28:44.365Z,11.87
2023-04-08T05:31:12.242Z,16.00
2023-04-08T05:33:40.386Z,16.00
2023-04-08T05:36:09.610Z,16.40
2023-04-08T05:38:37.523Z,14.77
2023-04-08T05:41:05.387Z,15.77
2023-04-08T05:43:34.066Z,15.57
2023-04-08T05:46:02.104Z,14.40
2023-04-08T05:48:29.928Z,15.77
2023-04-08T05:50:57.728Z,16.00
2023-04-08T05:53:28.482Z,17.30
2023-04-08T05:55:56.374Z,15.60
2023-04-08T05:58:24.247Z,15.63
2023-04-08T06:00:52.162Z,16.17
2023-04-08T06:03:20.812Z,14.87
2023-04-08T06:05:48.956Z,13.53
2023-04-08T06:08:16.778Z,11.43
2023-04-08T06:10:51.294Z,14.03
2023-04-08T06:13:20.945Z,14.57
2023-04-08T06:15:50.206Z,14.00
2023-04-08T06:18:18.359Z,13.30
2023-04-08T06:20:46.400Z,12.97
2023-04-08T06:23:14.297Z,13.87
2023-04-08T06:25:42.446Z,12.37
2023-04-08T06:28:11.794Z,13.10
2023-04-08T06:30:39.632Z,12.37
2023-04-08T06:33:07.502Z,13.33
2023-04-08T06:35:37.350Z,10.60
2023-04-08T06:38:05.318Z,10.63
2023-04-08T06:40:33.272Z,11.03
2023-04-08T06:43:01.226Z,12.77
2023-04-08T06:45:43.074Z,11.97
2023-04-08T06:48:12.022Z,13.53
2023-04-08T06:50:39.842Z,10.20
2023-04-08T06:53:07.729Z,12.80
2023-04-08T06:55:35.564Z,13.77
2023-04-08T06:58:03.423Z,10.90
2023-04-08T07:00:31.428Z,11.63
2023-04-08T07:03:00.810Z,14.07
2023-04-08T07:05:28.703Z,15.20
2023-04-08T07:07:56.631Z,12.83
2023-04-08T07:10:25.345Z,12.37
2023-04-08T07:12:53.522Z,13.23
2023-04-08T07:15:21.694Z,14.00
2023-04-08T07:17:49.615Z,12.87
2023-04-08T07:20:19.214Z,13.40
2023-04-08T07:22:47.084Z,14.83
2023-04-08T07:25:15.062Z,11.47
2023-04-08T07:27:42.913Z,11.67
2023-04-08T07:30:11.330Z,12.17
2023-04-08T07:32:39.171Z,12.27
2023-04-08T07:35:08.659Z,11.50
2023-04-08T07:37:37.892Z,12.07
2023-04-08T07:40:07.569Z,12.27
2023-04-08T07:42:35.392Z,8.63
2023-04-08T07:45:03.536Z,11.20
2023-04-08T07:47:31.440Z,8.37
2023-04-08T07:49:59.317Z,11.90
2023-04-08T07:52:27.376Z,12.43
2023-04-08T07:54:56.714Z,11.50
2023-04-08T07:57:24.776Z,12.03
2023-04-08T07:59:52.738Z,10.70
2023-04-08T08:02:20.741Z,13.10
2023-04-08T08:04:48.674Z,12.13
2023-04-08T08:07:16.700Z,10.20
2023-04-08T08:09:44.628Z,12.97
2023-04-08T08:12:13.884Z,13.40
2023-04-08T08:14:41.694Z,8.77
2023-04-08T08:17:09.576Z,9.40
2023-04-08T08:19:37.387Z,11.17
2023-04-08T08:22:05.284Z,12.57
2023-04-08T08:24:33.091Z,10.90
2023-04-08T08:27:01.190Z,13.03
2023-04-08T08:29:30.400Z,13.10
2023-04-08T08:31:58.234Z,12.63
2023-04-08T08:34:26.051Z,13.87
2023-04-08T08:36:54.296Z,9.90
2023-04-08T08:39:22.323Z,11.67
2023-04-08T08:41:50.407Z,12.43
2023-04-08T08:44:18.344Z,14.23
2023-04-08T08:46:48.238Z,8.77
2023-04-08T08:49:16.432Z,14.07
2023-04-08T08:51:46.517Z,13.50
2023-04-08T08:54:15.938Z,12.43
2023-04-08T08:56:43.974Z,15.50
2023-04-08T08:59:11.845Z,14.43
2023-04-08T09:01:41.224Z,13.93
2023-04-08T09:04:14.295Z,14.23
2023-04-08T09:06:43.054Z,14.87
2023-04-08T09:09:13.522Z,14.63
2023-04-08T09:11:42.596Z,15.33
2023-04-08T09:14:24.504Z,15.27
2023-04-08T09:16:53.230Z,9.40
2023-04-08T09:19:22.601Z,14.87
2023-04-08T09:22:06.343Z,15.60
2023-04-08T09:24:34.594Z,14.43
2023-04-08T09:27:02.474Z,12.00
2023-04-08T09:29:33.849Z,13.83
2023-04-08T09:32:03.384Z,12.90
2023-04-08T09:34:34.493Z,12.67
2023-04-08T09:37:03.691Z,12.93
2023-04-08T09:39:32.388Z,13.20
2023-04-08T09:42:03.762Z,13.93
2023-04-08T09:44:34.488Z,8.93
2023-04-08T09:47:09.354Z,10.53
2023-04-08T09:49:44.646Z,14.23
2023-04-08T09:52:16.581Z,12.33
2023-04-08T09:54:55.534Z,13.77
2023-04-08T09:57:29.925Z,14.17
2023-04-08T10:00:05.334Z,14.43
2023-04-08T10:02:50.453Z,12.67
2023-04-08T10:05:21.281Z,10.50
2023-04-08T10:07:51.269Z,13.00
2023-04-08T10:10:19.842Z,12.77
2023-04-08T10:12:47.883Z,11.73
2023-04-08T10:15:30.484Z,12.43
2023-04-08T10:18:35.097Z,14.77
2023-04-08T10:21:03.549Z,14.33
2023-04-08T10:23:54.570Z,15.73
2023-04-08T10:26:36.658Z,14.53
2023-04-08T10:29:34.933Z,11.63
2023-04-08T10:32:02.956Z,16.13
2023-04-08T10:34:32.223Z,13.53
2023-04-08T10:37:02.112Z,12.37
2023-04-08T10:39:31.344Z,14.13
2023-04-08T10:41:59.203Z,15.13
2023-04-08T10:44:27.686Z,11.77
2023-04-08T10:46:56.349Z,13.63
2023-04-08T10:49:33.152Z,13.87
2023-04-08T10:52:07.489Z,14.53
2023-04-08T10:54:35.527Z,14.10
2023-04-08T10:57:03.552Z,14.37
2023-04-08T10:59:33.245Z,14.97
2023-04-08T11:02:02.454Z,13.27
2023-04-08T11:04:30.812Z,8.17
2023-04-08T11:06:59.086Z,12.40
2023-04-08T11:09:28.362Z,13.23
2023-04-08T11:11:56.576Z,12.13
2023-04-08T11:14:26.846Z,14.10
2023-04-08T11:16:54.794Z,11.77
2023-04-08T11:19:22.800Z,14.53
2023-04-08T11:21:52.563Z,13.37
2023-04-08T11:24:22.268Z,11.77
2023-04-08T11:26:51.839Z,11.87
2023-04-08T11:29:20.059Z,10.53
2023-04-08T11:31:49.565Z,14.13
2023-04-08T11:34:24.663Z,13.13
2023-04-08T11:36:53.277Z,11.87
2023-04-08T11:39:24.203Z,12.47
2023-04-08T11:41:53.530Z,12.20
2023-04-08T11:44:21.660Z,13.20
2023-04-08T11:46:55.249Z,11.83
2023-04-08T11:49:23.191Z,12.63
2023-04-08T11:52:00.100Z,12.73
2023-04-08T11:54:28.799Z,13.83
2023-04-08T11:56:59.024Z,13.73
2023-04-08T11:59:29.510Z,12.33
2023-04-08T12:01:58.786Z,12.93
2023-04-08T12:04:26.791Z,13.53
2023-04-08T12:06:56.285Z,14.40
2023-04-08T12:09:25.608Z,12.47
2023-04-08T12:11:53.416Z,13.97
2023-04-08T12:14:26.818Z,13.17
2023-04-08T12:16:56.020Z,11.37
2023-04-08T12:19:23.816Z,11.07
2023-04-08T12:21:51.783Z,9.67
2023-04-08T12:24:19.985Z,13.73
2023-04-08T12:26:47.818Z,13.90
2023-04-08T12:29:15.760Z,12.83
2023-04-08T12:31:45.040Z,14.40
2023-04-08T12:34:13.253Z,12.17
2023-04-08T12:36:41.858Z,14.10
2023-04-08T12:39:10.055Z,12.97
2023-04-08T12:41:37.935Z,13.67
2023-04-08T12:44:06.515Z,14.57
2023-04-08T12:46:34.745Z,13.20
2023-04-08T12:49:05.400Z,11.53
2023-04-08T12:51:34.134Z,13.63
2023-04-08T12:54:03.277Z,12.93
2023-04-08T12:56:31.539Z,11.53
2023-04-08T12:58:59.517Z,12.90
2023-04-08T13:01:27.671Z,12.23
2023-04-08T13:03:56.314Z,11.90
2023-04-08T13:06:25.872Z,13.30
2023-04-08T13:08:53.792Z,14.47
2023-04-08T13:11:22.184Z,13.80
2023-04-08T13:13:50.420Z,13.23
2023-04-08T13:16:18.423Z,12.77
2023-04-08T13:18:46.553Z,13.70
2023-04-08T13:21:14.383Z,15.50
2023-04-08T13:23:43.557Z,12.30
2023-04-08T13:26:11.524Z,9.10
2023-04-08T13:28:50.107Z,12.33
2023-04-08T13:31:24.424Z,14.73
2023-04-08T13:33:54.517Z,14.53
2023-04-08T13:36:24.283Z,13.13
2023-04-08T13:38:53.723Z,13.53
2023-04-08T13:41:22.022Z,12.77
2023-04-08T13:43:50.325Z,14.97
2023-04-08T13:46:18.629Z,14.47
2023-04-08T13:48:46.845Z,12.27
2023-04-08T13:51:14.843Z,12.03
2023-04-08T13:53:42.675Z,13.67
2023-04-08T13:56:11.876Z,14.47
2023-04-08T13:58:39.713Z,14.17
2023-04-08T14:01:07.662Z,13.23
2023-04-08T14:03:35.582Z,14.27
2023-04-08T14:06:03.438Z,14.07
2023-04-08T14:08:31.528Z,14.47
2023-04-08T14:10:59.397Z,13.97
2023-04-08T14:13:28.611Z,14.33
2023-04-08T14:15:58.262Z,12.27
2023-04-08T14:18:26.350Z,13.53
2023-04-08T14:20:54.269Z,12.97
2023-04-08T14:23:22.140Z,13.30
2023-04-08T14:25:50.164Z,13.33
2023-04-08T14:28:17.962Z,14.57
2023-04-08T14:30:47.443Z,12.00
2023-04-08T14:33:15.417Z,10.10
2023-04-08T14:35:43.362Z,11.50
2023-04-08T14:38:11.302Z,12.97
2023-04-08T14:40:39.175Z,12.27
2023-04-08T14:43:07.329Z,12.33
2023-04-08T14:45:35.509Z,13.00
2023-04-08T14:48:04.956Z,9.67
2023-04-08T14:50:32.864Z,12.30
2023-04-08T14:53:01.067Z,12.23
2023-04-08T14:55:30.000Z,11.93
2023-04-08T14:57:59.839Z,12.83
2023-04-08T15:00:28.916Z,12.20
2023-04-08T15:02:56.865Z,8.27
2023-04-08T15:05:26.519Z,12.83
2023-04-08T15:07:55.424Z,12.70
2023-04-08T15:10:23.327Z,7.70
2023-04-08T15:12:51.098Z,12.47
2023-04-08T15:15:19.027Z,11.77
2023-04-08T15:17:46.957Z,13.53
2023-04-08T15:20:14.876Z,10.00
2023-04-08T15:22:44.030Z,11.13
2023-04-08T15:25:11.945Z,14.10
2023-04-08T15:27:40.189Z,13.97
2023-04-08T15:30:11.244Z,12.43
2023-04-08T15:32:41.228Z,13.27
2023-04-08T15:35:10.199Z,12.90
2023-04-08T15:37:38.159Z,13.50
2023-04-08T15:40:09.050Z,13.20
2023-04-08T15:42:36.914Z,13.27
2023-04-08T15:45:05.279Z,11.30
2023-04-08T15:47:34.330Z,12.80
2023-04-08T15:50:02.341Z,12.37
2023-04-08T15:52:30.272Z,13.13
2023-04-08T15:54:58.787Z,14.00
2023-04-08T15:57:28.223Z,13.63
2023-04-08T15:59:56.189Z,13.33
2023-04-08T16:02:25.528Z,13.70
2023-04-08T16:04:53.519Z,16.03
2023-04-08T16:07:21.375Z,13.70
2023-04-08T16:09:49.169Z,12.80
2023-04-08T16:12:17.086Z,13.80
2023-04-08T16:14:47.764Z,13.47
2023-04-08T16:17:16.389Z,13.43
2023-04-08T16:19:44.217Z,14.70
2023-04-08T16:22:12.058Z,14.50
2023-04-08T16:24:39.898Z,14.83
2023-04-08T16:27:07.776Z,13.40
2023-04-08T16:29:35.832Z,14.30
2023-04-08T16:32:05.258Z,13.37
2023-04-08T16:34:33.188Z,14.10
2023-04-08T16:37:01.260Z,15.60
2023-04-08T16:39:29.260Z,13.73
2023-04-08T16:41:57.164Z,15.10
2023-04-08T16:44:25.284Z,16.57
2023-04-08T16:46:53.930Z,15.73
2023-04-08T16:49:23.144Z,17.07
2023-04-08T16:51:50.995Z,18.40
2023-04-08T16:54:18.808Z,16.40
2023-04-08T16:56:46.682Z,16.90
2023-04-08T16:59:14.652Z,16.73
2023-04-08T17:01:42.623Z,16.80
2023-04-08T17:04:10.606Z,18.70
2023-04-08T17:06:41.379Z,19.57
2023-04-08T17:09:09.518Z,19.17
2023-04-08T17:11:37.381Z,17.57
2023-04-08T17:14:05.520Z,19.27
2023-04-08T17:16:33.376Z,18.73
2023-04-08T17:19:01.311Z,20.13
2023-04-08T17:21:29.201Z,18.00
2023-04-08T17:23:58.454Z,16.23
2023-04-08T17:26:26.266Z,19.30
2023-04-08T17:28:54.451Z,18.17
2023-04-08T17:31:22.615Z,18.70
2023-04-08T17:33:51.166Z,17.83
2023-04-08T17:36:19.223Z,33.20
2023-04-08T17:38:49.294Z,17.20
2023-04-08T17:41:29.814Z,26.63
2023-04-08T17:44:03.234Z,21.70
2023-04-08T17:46:33.385Z,23.50
2023-04-08T17:49:01.347Z,24.27
2023-04-08T17:51:30.172Z,25.63
2023-04-08T17:53:58.064Z,26.47
2023-04-08T17:56:27.709Z,29.40
2023-04-08T17:58:55.824Z,34.40
2023-04-08T18:01:23.955Z,28.10
2023-04-08T18:03:52.311Z,30.80
2023-04-08T18:06:20.424Z,29.87
2023-04-08T18:08:48.535Z,29.97
2023-04-08T18:11:16.443Z,28.37
2023-04-08T18:13:46.019Z,33.23
2023-04-08T18:16:17.847Z,31.80
2023-04-08T18:18:45.819Z,35.00
2023-04-08T18:21:14.935Z,32.30
2023-04-08T18:23:42.940Z,30.17
2023-04-08T18:26:10.939Z,25.10
2023-04-08T18:28:38.856Z,25.87
2023-04-08T18:31:08.098Z,25.73
2023-04-08T18:33:36.251Z,24.40
2023-04-08T18:36:08.141Z,30.87
2023-04-08T18:38:36.697Z,23.73
2023-04-08T18:41:04.819Z,44.67
2023-04-08T18:43:33.069Z,28.73
2023-04-08T18:46:01.321Z,26.80
2023-04-08T18:48:30.691Z,26.60
2023-04-08T18:50:58.610Z,26.87
2023-04-08T18:53:26.546Z,28.60
2023-04-08T18:55:55.017Z,28.27
2023-04-08T18:58:22.909Z,27.13
2023-04-08T19:00:50.929Z,27.33
2023-04-08T19:03:18.934Z,26.53
2023-04-08T19:05:48.260Z,27.20
2023-04-08T19:08:16.059Z,27.47
2023-04-08T19:10:43.946Z,28.50
2023-04-08T19:13:11.800Z,28.20
2023-04-08T19:15:39.829Z,29.57
2023-04-08T19:18:07.725Z,29.50
2023-04-08T19:20:35.616Z,26.77
2023-04-08T19:23:05.721Z,28.90
2023-04-08T19:25:33.942Z,28.10
2023-04-08T19:28:02.051Z,28.43
2023-04-08T19:30:29.911Z,29.70
2023-04-08T19:32:58.574Z,27.70
2023-04-08T19:35:26.590Z,28.10
2023-04-08T19:37:54.392Z,29.13
2023-04-08T19:40:23.654Z,29.60
2023-04-08T19:42:51.616Z,28.93
2023-04-08T19:45:19.620Z,30.40
2023-04-08T19:47:47.650Z,27.33
2023-04-08T19:50:15.472Z,27.37
2023-04-08T19:52:43.387Z,28.10
2023-04-08T19:55:11.436Z,31.27
2023-04-08T19:57:41.027Z,33.60
2023-04-08T20:00:10.858Z,34.23
2023-04-08T20:02:40.210Z,37.47
2023-04-08T20:05:14.454Z,35.30
2023-04-08T20:07:42.498Z,36.57
2023-04-08T20:10:11.040Z,36.87
2023-04-08T20:12:41.326Z,36.57
2023-04-08T20:15:22.770Z,37.10
2023-04-08T20:17:52.990Z,38.27
2023-04-08T20:20:21.198Z,37.07
2023-04-08T20:22:49.380Z,37.77
2023-04-08T20:25:17.219Z,38.97
2023-04-08T20:27:46.584Z,38.13
2023-04-08T20:30:14.576Z,38.00
2023-04-08T20:32:42.564Z,30.33
2023-04-08T20:35:10.886Z,28.87
2023-04-08T20:37:38.783Z,29.43
2023-04-08T20:40:08.180Z,28.50
2023-04-08T20:42:36.416Z,29.03
2023-04-08T20:45:06.545Z,29.73
2023-04-08T20:47:34.443Z,29.13
2023-04-08T20:50:02.461Z,29.33
2023-04-08T20:52:30.321Z,29.93
2023-04-08T20:54:58.250Z,29.63
2023-04-08T20:57:26.157Z,28.07
2023-04-08T20:59:54.023Z,35.37
2023-04-08T21:02:24.279Z,29.53
2023-04-08T21:04:52.478Z,28.77
2023-04-08T21:07:20.303Z,30.37
2023-04-08T21:09:49.055Z,31.43
2023-04-08T21:12:16.867Z,32.77
2023-04-08T21:14:45.989Z,35.53
2023-04-08T21:17:14.056Z,32.90
2023-04-08T21:19:43.360Z,33.90
2023-04-08T21:22:11.217Z,35.07
2023-04-08T21:24:39.003Z,33.53
2023-04-08T21:27:06.933Z,33.50
2023-04-08T21:29:34.757Z,32.23
2023-04-08T21:32:02.626Z,34.57
2023-04-08T21:34:30.966Z,32.07
2023-04-08T21:37:00.463Z,30.13
2023-04-08T21:39:28.448Z,28.73
2023-04-08T21:41:57.381Z,28.80
2023-04-08T21:44:25.611Z,30.67
2023-04-08T21:46:54.050Z,29.93
2023-04-08T21:49:21.962Z,28.17
2023-04-08T21:51:49.740Z,29.83
2023-04-08T21:54:18.910Z,29.67
2023-04-08T21:56:46.724Z,29.83
2023-04-08T21:59:14.570Z,31.90
2023-04-08T22:01:42.483Z,36.37
2023-04-08T22:04:10.978Z,31.93
2023-04-08T22:06:38.918Z,33.43
2023-04-08T22:09:07.139Z,32.13
2023-04-08T22:11:36.385Z,32.27
2023-04-08T22:14:04.251Z,33.60
2023-04-08T22:16:33.022Z,36.80
2023-04-08T22:19:01.315Z,40.67
2023-04-08T22:21:29.235Z,41.10
2023-04-08T22:23:57.066Z,37.63
2023-04-08T22:26:24.878Z,36.20
2023-04-08T22:28:54.385Z,34.67
2023-04-08T22:31:22.578Z,33.30
2023-04-08T22:33:50.466Z,32.50
2023-04-08T22:36:18.385Z,33.57
2023-04-08T22:38:46.223Z,28.77
2023-04-08T22:41:20.664Z,30.83
2023-04-08T22:43:49.006Z,28.77
2023-04-08T22:46:19.982Z,31.97
2023-04-08T22:48:49.128Z,31.67
2023-04-08T22:51:17.357Z,34.27
2023-04-08T22:53:45.444Z,33.30
2023-04-08T22:56:13.240Z,36.90
2023-04-08T22:58:41.091Z,38.57
2023-04-08T23:01:13.643Z,38.67
2023-04-08T23:03:43.010Z,37.57
2023-04-08T23:06:11.355Z,37.13
2023-04-08T23:08:39.586Z,36.93
2023-04-08T23:11:07.728Z,36.83
2023-04-08T23:13:35.706Z,36.60
2023-04-08T23:16:03.772Z,36.43
2023-04-08T23:18:31.712Z,36.10
2023-04-08T23:21:00.916Z,34.33
2023-04-08T23:23:28.910Z,34.87
2023-04-08T23:25:56.771Z,40.63
2023-04-08T23:28:24.850Z,40.13
2023-04-08T23:30:52.780Z,41.73
2023-04-08T23:33:20.849Z,43.43
2023-04-08T23:35:49.580Z,42.97
2023-04-08T23:38:18.850Z,42.13
2023-04-08T23:40:46.765Z,42.60
2023-04-08T23:43:14.854Z,42.90
2023-04-08T23:45:42.744Z,43.93
2023-04-08T23:48:10.559Z,43.90
2023-04-08T23:50:38.409Z,42.43
2023-04-08T23:53:06.248Z,45.43
2023-04-08T23:55:36.181Z,42.97
2023-04-08T23:58:04.072Z,44.87
